Flight Track Log - Related Links

Times and Time Zones

All times are in EDT time to prevent confusion due to time zone crossing. See the LIA553 flight status page for this flight to view local times or setup timezone preferences in your user account.

Time Position Orientation Groundspeed Altitude Reporting Facility
EDT Latitude Longitude Course Direction KTS MPH feet Rate Location/Type
Wed 03:12:00 PM 17.5105 -62.3459 126° Southeast  Level FlightAware Approximate
Wed 03:13:00 PM 17.4607 -62.2733 126° Southeast  Level FlightAware Approximate
Wed 03:14:00 PM 17.4081 -62.2030 131° Southeast  Level FlightAware Approximate
Wed 03:15:00 PM 17.3520 -62.1357 131° Southeast  Level FlightAware Approximate
Wed 03:16:00 PM 17.3029 -62.0627 125° Southeast  Level FlightAware Approximate
Wed 03:17:00 PM 17.2541 -61.9894 125° Southeast  Level FlightAware Approximate
Wed 03:18:00 PM 17.2017 -61.9189 128° Southeast  Level FlightAware Approximate
Wed 03:19:00 PM 17.1491 -61.8487 125° Southeast  Level FlightAware Approximate
Wed 03:20:00 PM 17.1367 -61.7927 90° East  Level Estimated
Wed 03:21:00 PM 17.1367 -61.7927 90° East  Level Estimated
Wed 03:22:00 PM 17.1367 -61.7927 90° East  Level Estimated
Wed 03:23:00 PM 17.1367 -61.7927 90° East  Level Estimated
Wed 03:24:00 PM 17.1367 -61.7927 90° East  Level Estimated
Wed 03:25:00 PM 17.1367 -61.7927 90° East  Level Estimated
Wed 03:26:00 PM 17.1367 -61.7927 90° East  Level Estimated
Wed 03:27:00 PM 17.1367 -61.7927 90° East  Level Estimated
Wed 03:28:00 PM 17.1367 -61.7927 90° East  Level Estimated
Wed 03:29:00 PM 17.1367 -61.7927 90° East  Level Estimated
Wed 03:30:00 PM 17.1367 -61.7927 90° East  Level Estimated
Wed 03:31:00 PM 17.1367 -61.7927 90° East  Level Estimated
Wed 03:32:00 PM 17.1367 -61.7927 90° East  Level Estimated
Wed 03:33:00 PM 17.1367 -61.7927 90° East  Level Estimated
Wed 03:34:00 PM 17.1367 -61.7927 90° East  Level Estimated
Wed 03:35:00 PM 17.1367 -61.7927 90° East  Level Estimated
Wed 03:36:00 PM 17.1367 -61.7927 90° East  Level Estimated

Login

Don't have an account? Register now (free) for customized features, flight alerts, and more!